createdAt,value
2023-05-08T00:34:07.781Z,14.94
2023-05-08T00:49:03.735Z,14.36
2023-05-08T01:04:00.342Z,14.52
2023-05-08T01:18:56.615Z,14.64
2023-05-08T01:33:53.314Z,14.82
2023-05-08T01:48:49.445Z,15.15
2023-05-08T02:03:46.020Z,15.12
2023-05-08T02:18:41.956Z,15.21
2023-05-08T02:33:38.420Z,15.02
2023-05-08T02:48:34.316Z,14.83
2023-05-08T03:03:30.995Z,14.97
2023-05-08T03:18:26.679Z,14.75
2023-05-08T03:33:22.928Z,14.28
2023-05-08T03:48:19.131Z,14.58
2023-05-08T04:03:15.356Z,14.5
2023-05-08T04:18:11.224Z,14.39
2023-05-08T04:33:07.367Z,14.33
2023-05-08T04:48:03.524Z,14.14
2023-05-08T05:03:00.034Z,13.9
2023-05-08T05:17:55.724Z,13.78
2023-05-08T05:32:51.722Z,13.99
2023-05-08T05:47:47.850Z,13.51
2023-05-08T06:02:43.851Z,13.45
2023-05-08T06:17:40.333Z,13.71
2023-05-08T06:32:36.440Z,13.92
2023-05-08T06:47:32.596Z,13.99
2023-05-08T07:02:28.859Z,13.48
2023-05-08T07:17:24.828Z,14.16
2023-05-08T07:32:20.722Z,13.89
2023-05-08T07:47:17.589Z,14.61
2023-05-08T08:02:13.490Z,14.85
2023-05-08T08:17:10.695Z,15.18
2023-05-08T08:32:06.518Z,15.62
2023-05-08T08:47:02.816Z,16.44
2023-05-08T09:01:59.373Z,16.18
2023-05-08T09:16:55.351Z,15.61
2023-05-08T09:31:51.289Z,15.62
2023-05-08T09:46:47.568Z,15.79
2023-05-08T10:01:45.698Z,16.01
2023-05-08T10:16:39.488Z,15.68
2023-05-08T10:31:35.353Z,15.62
2023-05-08T10:46:31.617Z,15.87
2023-05-08T11:01:28.147Z,15.82
2023-05-08T11:16:24.557Z,15.6
2023-05-08T11:31:21.558Z,16
2023-05-08T11:46:17.966Z,16.56
2023-05-08T12:01:14.953Z,17.47
2023-05-08T12:16:11.576Z,18.21
2023-05-08T12:31:08.483Z,18.85
2023-05-08T12:46:05.295Z,18.82
2023-05-08T13:01:02.526Z,20.17
2023-05-08T13:30:55.229Z,20.41
2023-05-08T13:45:51.833Z,20.24
2023-05-08T14:00:48.246Z,21.19
2023-05-08T14:15:44.814Z,20.94
2023-05-08T14:30:41.504Z,21.37
2023-05-08T14:45:38.044Z,20.26
2023-05-08T15:00:32.892Z,20.49
2023-05-08T15:15:29.396Z,19.85
2023-05-08T15:30:25.254Z,20.69
2023-05-08T15:45:21.588Z,21.62
2023-05-08T16:00:18.773Z,21.72
2023-05-08T16:15:14.852Z,22.07
2023-05-08T16:30:11.053Z,20.86
2023-05-08T16:45:06.369Z,19.58
2023-05-08T17:00:02.038Z,19.37
2023-05-08T17:14:57.735Z,19.78
2023-05-08T17:29:53.467Z,19.37
2023-05-08T17:44:49.796Z,19.08
2023-05-08T17:59:45.540Z,18.82
2023-05-08T18:14:41.661Z,18.44
2023-05-08T18:29:37.355Z,18.17
2023-05-08T18:44:33.144Z,17.93
2023-05-08T18:59:28.875Z,17.58
2023-05-08T19:14:24.775Z,17.37
2023-05-08T19:29:21.000Z,17.1
2023-05-08T19:44:17.148Z,16.96
2023-05-08T19:59:13.080Z,16.76
2023-05-08T20:14:08.703Z,16.33
2023-05-08T20:29:05.126Z,16.17
2023-05-08T20:44:01.009Z,15.99
2023-05-08T20:58:56.662Z,15.62
2023-05-08T22:13:36.717Z,15.08
2023-05-08T22:28:33.093Z,14.79
2023-05-08T22:43:29.376Z,14.36
2023-05-08T22:58:25.503Z,14.47
2023-05-08T23:13:22.134Z,14.33
2023-05-08T23:28:17.346Z,13.79
2023-05-08T23:43:13.580Z,13.58
2023-05-08T23:58:09.578Z,13.86
